createdAt,value
2016-11-11T00:00:30.424Z,0
2016-11-11T00:01:40.741Z,0
2016-11-11T00:02:51.063Z,0
2016-11-11T00:04:01.510Z,0
2016-11-11T00:05:26.400Z,0
2016-11-11T00:06:36.720Z,0
2016-11-11T00:08:01.612Z,0
2016-11-11T00:09:11.933Z,0
2016-11-11T00:10:22.285Z,0
2016-11-11T00:11:32.699Z,0
2016-11-11T00:12:43.118Z,0
2016-11-11T00:13:53.532Z,0
2016-11-11T00:15:03.948Z,0
2016-11-11T00:16:14.386Z,0
2016-11-11T00:17:25.291Z,0
2016-11-11T00:18:35.733Z,0
2016-11-11T00:19:46.145Z,0
2016-11-11T00:20:56.660Z,0
2016-11-11T00:22:07.076Z,0
2016-11-11T00:23:17.490Z,0
2016-11-11T00:24:42.457Z,0
2016-11-11T00:25:52.971Z,0
2016-11-11T00:27:03.388Z,0
2016-11-11T00:28:13.803Z,0
2016-11-11T00:29:24.244Z,0
2016-11-11T00:30:34.655Z,0
2016-11-11T00:31:45.272Z,0
2016-11-11T00:32:55.804Z,0
2016-11-11T00:34:06.337Z,0
2016-11-11T00:35:16.873Z,0
2016-11-11T00:36:27.403Z,0
2016-11-11T00:37:37.933Z,0
2016-11-11T00:38:48.467Z,0
2016-11-11T00:39:58.996Z,0
2016-11-11T00:41:09.539Z,0
2016-11-11T00:42:20.069Z,0
2016-11-11T00:43:30.708Z,0
2016-11-11T00:44:41.240Z,0
2016-11-11T00:45:51.770Z,0
2016-11-11T00:47:02.301Z,0
2016-11-11T00:48:12.834Z,0
2016-11-11T00:49:23.462Z,0
2016-11-11T00:50:34.003Z,0
2016-11-11T00:51:45.028Z,0
2016-11-11T00:52:55.558Z,0
2016-11-11T00:54:06.088Z,0
2016-11-11T00:55:16.615Z,0
2016-11-11T00:56:27.056Z,0
2016-11-11T00:57:37.498Z,0
2016-11-11T00:58:47.959Z,0
2016-11-11T01:01:23.388Z,0
2016-11-11T01:02:33.826Z,0
2016-11-11T01:03:44.259Z,0
2016-11-11T01:04:54.698Z,0
2016-11-11T01:06:05.139Z,0
2016-11-11T01:07:15.684Z,0
2016-11-11T01:08:26.124Z,0
2016-11-11T01:09:36.563Z,0
2016-11-11T01:10:47.000Z,0
2016-11-11T01:11:57.439Z,0
2016-11-11T01:13:07.878Z,0
2016-11-11T01:14:18.321Z,0
2016-11-11T01:15:28.757Z,0
2016-11-11T01:16:39.195Z,0
2016-11-11T01:17:49.631Z,0
2016-11-11T01:19:00.201Z,0
2016-11-11T01:20:25.184Z,0
2016-11-11T01:21:35.622Z,0
2016-11-11T01:22:46.069Z,0
2016-11-11T01:23:56.548Z,0
2016-11-11T01:25:06.997Z,0
2016-11-11T01:26:17.439Z,0
2016-11-11T01:27:27.878Z,0
2016-11-11T01:28:38.319Z,0
2016-11-11T01:29:48.857Z,0
2016-11-11T01:30:59.297Z,0
2016-11-11T01:32:09.736Z,0
2016-11-11T01:33:20.175Z,0
2016-11-11T01:34:45.166Z,0
2016-11-11T01:35:56.091Z,0
2016-11-11T01:37:21.071Z,0
2016-11-11T01:38:31.404Z,0
2016-11-11T01:39:41.728Z,0
2016-11-11T01:40:52.051Z,0
2016-11-11T01:42:02.368Z,0
2016-11-11T01:43:12.693Z,0
2016-11-11T01:44:23.015Z,0
2016-11-11T01:45:33.337Z,0
2016-11-11T01:46:43.665Z,0
2016-11-11T01:47:53.989Z,0
2016-11-11T01:49:04.309Z,0
2016-11-11T01:50:14.665Z,0
2016-11-11T01:51:24.985Z,0
2016-11-11T01:52:35.402Z,0
2016-11-11T01:55:11.128Z,0
2016-11-11T01:56:36.012Z,0
2016-11-11T01:57:46.332Z,0
2016-11-11T01:58:56.662Z,0
2016-11-11T02:01:46.435Z,0
2016-11-11T02:02:56.760Z,0
2016-11-11T02:04:21.645Z,0
2016-11-11T02:05:31.966Z,0
2016-11-11T02:06:42.287Z,0
2016-11-11T02:07:52.639Z,0
2016-11-11T02:09:02.992Z,0
2016-11-11T02:10:13.315Z,0
2016-11-11T02:11:23.638Z,0
2016-11-11T02:12:34.063Z,0
2016-11-11T02:13:44.601Z,0
2016-11-11T02:14:55.048Z,0
2016-11-11T02:16:05.491Z,0
2016-11-11T02:18:41.018Z,0
2016-11-11T02:19:51.453Z,0
2016-11-11T02:21:01.893Z,0
2016-11-11T02:22:26.877Z,0
2016-11-11T02:23:37.414Z,0
2016-11-11T02:24:48.980Z,0
2016-11-11T02:25:59.418Z,0
2016-11-11T02:27:09.862Z,0
2016-11-11T02:28:20.296Z,0
2016-11-11T02:29:30.735Z,0
2016-11-11T02:30:41.180Z,0
2016-11-11T02:31:51.625Z,0
2016-11-11T02:33:02.069Z,0
2016-11-11T02:34:12.516Z,0
2016-11-11T02:35:22.952Z,0
2016-11-11T02:36:33.390Z,0
2016-11-11T02:37:58.374Z,0
2016-11-11T02:39:08.815Z,0
2016-11-11T02:40:19.452Z,0
2016-11-11T02:41:29.891Z,0
2016-11-11T02:42:54.872Z,0
2016-11-11T02:44:05.319Z,0
2016-11-11T02:45:16.357Z,0
2016-11-11T02:46:26.797Z,0
2016-11-11T02:47:37.235Z,0
2016-11-11T02:48:47.674Z,0
2016-11-11T02:49:58.145Z,0
2016-11-11T02:51:08.588Z,0
2016-11-11T02:52:19.025Z,0
2016-11-11T02:53:29.466Z,0
2016-11-11T02:54:39.906Z,0
2016-11-11T02:56:05.029Z,0
2016-11-11T02:57:15.489Z,0
2016-11-11T02:58:25.955Z,0
2016-11-11T02:59:36.395Z,0
2016-11-11T03:00:46.843Z,0
2016-11-11T03:01:57.293Z,0
2016-11-11T03:03:07.734Z,0
2016-11-11T03:04:18.176Z,0
2016-11-11T03:05:28.613Z,0
2016-11-11T03:06:39.090Z,0
2016-11-11T03:07:49.530Z,0
2016-11-11T03:08:59.972Z,0
2016-11-11T03:10:10.410Z,0
2016-11-11T03:11:20.846Z,0
2016-11-11T03:12:31.281Z,0
2016-11-11T03:13:41.916Z,0
2016-11-11T03:14:52.354Z,0
2016-11-11T03:16:02.796Z,0
2016-11-11T03:17:13.233Z,0
2016-11-11T03:18:38.316Z,0
2016-11-11T03:19:48.650Z,0
2016-11-11T03:20:58.966Z,0
2016-11-11T03:22:09.322Z,0
2016-11-11T03:23:19.646Z,0
2016-11-11T03:24:44.731Z,0
2016-11-11T03:25:55.053Z,0
2016-11-11T03:27:05.379Z,0
2016-11-11T03:28:15.701Z,0
2016-11-11T03:29:40.788Z,0
2016-11-11T03:30:51.113Z,0
2016-11-11T03:32:16.020Z,0
2016-11-11T03:33:26.363Z,0
2016-11-11T03:34:36.899Z,0
2016-11-11T03:35:47.243Z,0
2016-11-11T03:36:57.620Z,0
2016-11-11T03:38:07.966Z,0
2016-11-11T03:39:18.304Z,0
2016-11-11T03:40:28.686Z,0
2016-11-11T03:41:39.025Z,0
2016-11-11T03:42:49.371Z,0
2016-11-11T03:43:59.709Z,0
2016-11-11T03:45:10.073Z,0
2016-11-11T03:46:20.508Z,0
2016-11-11T03:47:30.847Z,0
2016-11-11T03:48:41.177Z,0
2016-11-11T03:49:51.523Z,0
2016-11-11T03:51:01.862Z,0
2016-11-11T03:52:12.200Z,0
2016-11-11T03:53:22.569Z,0
2016-11-11T03:54:32.903Z,0
2016-11-11T03:55:43.242Z,0
2016-11-11T03:56:53.585Z,0
2016-11-11T03:58:04.123Z,0
2016-11-11T03:59:14.498Z,0
2016-11-11T04:00:24.833Z,0
2016-11-11T04:01:35.173Z,0
2016-11-11T04:02:45.515Z,0
2016-11-11T04:04:10.517Z,0
2016-11-11T04:05:20.855Z,0
2016-11-11T04:06:31.203Z,0
2016-11-11T04:07:41.572Z,0
2016-11-11T04:08:52.013Z,0
2016-11-11T04:10:02.351Z,0
2016-11-11T04:11:12.688Z,0
2016-11-11T04:12:23.026Z,0
2016-11-11T04:13:33.366Z,0
2016-11-11T04:14:43.702Z,0
2016-11-11T04:15:54.044Z,0
2016-11-11T04:17:04.419Z,0
2016-11-11T04:18:14.745Z,0
2016-11-11T04:19:25.070Z,0
2016-11-11T04:20:35.590Z,0
2016-11-11T04:21:45.946Z,0
2016-11-11T04:22:56.271Z,0
2016-11-11T04:24:21.195Z,0
2016-11-11T04:25:31.523Z,0
2016-11-11T04:26:41.848Z,0
2016-11-11T04:27:52.170Z,0
2016-11-11T04:29:02.489Z,0
2016-11-11T04:34:59.227Z,0
2016-11-11T04:36:09.554Z,0
2016-11-11T04:37:19.881Z,0
2016-11-11T04:38:30.199Z,0
2016-11-11T04:39:40.532Z,0
2016-11-11T04:40:50.853Z,0
2016-11-11T04:42:01.169Z,0
2016-11-11T04:43:11.493Z,0
2016-11-11T04:44:21.815Z,0
2016-11-11T04:45:32.136Z,0
2016-11-11T04:46:42.456Z,0
2016-11-11T04:47:52.777Z,0
2016-11-11T04:49:03.099Z,0
2016-11-11T04:50:13.423Z,0
2016-11-11T04:51:23.743Z,0
2016-11-11T04:52:34.265Z,0
2016-11-11T04:53:44.583Z,0
2016-11-11T04:54:54.904Z,0
2016-11-11T04:56:05.230Z,0
2016-11-11T04:57:15.559Z,0
2016-11-11T04:58:25.881Z,0
2016-11-11T04:59:36.199Z,0
2016-11-11T05:00:46.623Z,0
2016-11-11T05:01:57.062Z,0
2016-11-11T05:03:07.525Z,0
2016-11-11T05:04:18.079Z,0
2016-11-11T05:05:28.535Z,0
2016-11-11T05:06:38.991Z,0
2016-11-11T05:07:49.474Z,0
2016-11-11T05:08:59.964Z,0
2016-11-11T05:10:10.421Z,0
2016-11-11T05:11:20.874Z,0
2016-11-11T05:12:31.329Z,0
2016-11-11T05:13:41.778Z,0
2016-11-11T05:14:52.233Z,0
2016-11-11T05:16:02.691Z,0
2016-11-11T05:17:13.149Z,0
2016-11-11T05:18:23.605Z,0
2016-11-11T05:19:34.055Z,0
2016-11-11T05:20:44.505Z,0
2016-11-11T05:21:55.060Z,0
2016-11-11T05:23:06.004Z,0
2016-11-11T05:24:16.453Z,0
2016-11-11T05:25:26.907Z,0
2016-11-11T05:26:37.362Z,0
2016-11-11T05:27:47.914Z,0
2016-11-11T05:28:58.372Z,0
2016-11-11T05:30:08.825Z,0
2016-11-11T05:31:19.275Z,0
2016-11-11T05:32:29.726Z,0
2016-11-11T05:33:40.887Z,0
2016-11-11T05:34:51.230Z,0
2016-11-11T05:36:01.640Z,0
2016-11-11T05:37:12.085Z,0
2016-11-11T05:38:22.498Z,0
2016-11-11T05:39:32.910Z,0
2016-11-11T05:40:43.323Z,0
2016-11-11T05:42:08.282Z,0
2016-11-11T05:43:18.692Z,0
2016-11-11T05:44:29.203Z,0
2016-11-11T05:45:39.612Z,0
2016-11-11T05:46:50.028Z,0
2016-11-11T05:48:14.995Z,0
2016-11-11T05:49:25.402Z,0
2016-11-11T05:50:35.827Z,0
2016-11-11T05:51:46.240Z,0
2016-11-11T05:52:56.685Z,0
2016-11-11T05:54:07.103Z,0
2016-11-11T05:55:17.711Z,0
2016-11-11T05:56:28.123Z,0
2016-11-11T05:57:38.540Z,0
2016-11-11T05:58:48.951Z,0
2016-11-11T06:00:00.354Z,0
2016-11-11T06:01:10.863Z,0
2016-11-11T06:02:21.278Z,0
2016-11-11T06:03:31.685Z,0
2016-11-11T06:04:42.096Z,0
2016-11-11T06:05:52.507Z,0
2016-11-11T06:07:03.124Z,0
2016-11-11T06:08:13.648Z,0
2016-11-11T06:09:24.182Z,0
2016-11-11T06:10:34.714Z,0
2016-11-11T06:11:45.243Z,0
2016-11-11T06:12:55.980Z,0
2016-11-11T06:14:06.512Z,0
2016-11-11T06:15:17.039Z,0
2016-11-11T06:16:27.568Z,0
2016-11-11T06:17:38.104Z,0
2016-11-11T06:18:48.737Z,0
2016-11-11T06:19:59.266Z,0
2016-11-11T06:21:09.805Z,0
2016-11-11T06:22:20.340Z,0
2016-11-11T06:23:30.868Z,0
2016-11-11T06:24:41.501Z,0
2016-11-11T06:25:52.039Z,0
2016-11-11T06:27:02.600Z,0
2016-11-11T06:28:13.630Z,0
2016-11-11T06:29:24.162Z,0
2016-11-11T06:30:34.691Z,0
2016-11-11T06:31:45.218Z,0
2016-11-11T06:32:55.747Z,0
2016-11-11T06:34:06.282Z,0
2016-11-11T06:35:16.819Z,0
2016-11-11T06:36:27.450Z,0
2016-11-11T06:37:37.978Z,0
2016-11-11T06:39:03.039Z,0
2016-11-11T06:40:13.576Z,0
2016-11-11T06:41:24.149Z,0
2016-11-11T06:42:34.560Z,0
2016-11-11T06:43:44.878Z,0
2016-11-11T06:44:55.208Z,0
2016-11-11T06:46:20.093Z,0
2016-11-11T06:47:30.411Z,0
2016-11-11T06:48:40.736Z,0
2016-11-11T06:49:51.056Z,0
2016-11-11T06:51:01.378Z,0
2016-11-11T06:52:11.797Z,0
2016-11-11T06:53:22.115Z,0
2016-11-11T06:54:32.444Z,0
2016-11-11T06:57:07.957Z,0
2016-11-11T06:58:32.842Z,0
2016-11-11T06:59:43.638Z,0
2016-11-11T07:00:53.972Z,0
2016-11-11T07:02:18.961Z,0
2016-11-11T07:03:29.286Z,0
2016-11-11T07:04:39.638Z,0
2016-11-11T07:05:49.957Z,0
2016-11-11T07:07:00.276Z,0
2016-11-11T07:08:11.651Z,0
2016-11-11T07:09:21.973Z,0
2016-11-11T07:10:32.303Z,0
2016-11-11T07:11:42.625Z,0
2016-11-11T07:12:52.949Z,0
2016-11-11T07:14:03.370Z,0
2016-11-11T07:15:14.174Z,0
2016-11-11T07:16:24.493Z,0
2016-11-11T07:17:34.811Z,0
2016-11-11T07:18:45.131Z,0
2016-11-11T07:21:20.540Z,0
2016-11-11T07:22:30.862Z,0
2016-11-11T07:23:41.181Z,0
2016-11-11T07:24:51.843Z,0
2016-11-11T07:26:02.163Z,0
2016-11-11T07:27:12.494Z,0
2016-11-11T07:28:22.912Z,0
2016-11-11T07:29:48.127Z,0
2016-11-11T07:30:58.537Z,0
2016-11-11T07:32:08.950Z,0
2016-11-11T07:33:19.386Z,0
2016-11-11T07:34:29.797Z,0
2016-11-11T07:35:40.214Z,0
2016-11-11T07:36:50.650Z,0
2016-11-11T07:38:01.062Z,0
2016-11-11T07:39:26.023Z,0
2016-11-11T07:40:36.436Z,0
2016-11-11T07:41:46.846Z,0
2016-11-11T07:42:57.296Z,0
2016-11-11T07:44:07.710Z,0
2016-11-11T07:45:18.124Z,0
2016-11-11T07:46:28.742Z,0
2016-11-11T07:47:39.154Z,0
2016-11-11T07:48:49.570Z,0
2016-11-11T07:49:59.980Z,0
2016-11-11T07:51:10.401Z,0
2016-11-11T07:52:20.913Z,0
2016-11-11T07:53:31.324Z,0
2016-11-11T07:54:41.737Z,0
2016-11-11T07:55:52.156Z,0
2016-11-11T07:57:02.570Z,0
2016-11-11T07:58:12.993Z,0
2016-11-11T07:59:23.887Z,0
2016-11-11T08:00:34.307Z,0
2016-11-11T08:01:44.722Z,0
2016-11-11T08:02:55.136Z,0
2016-11-11T08:04:05.746Z,0
2016-11-11T08:05:16.157Z,0
2016-11-11T08:06:26.575Z,0
2016-11-11T08:07:36.987Z,0
2016-11-11T08:08:47.394Z,0
2016-11-11T08:09:58.000Z,0
2016-11-11T08:11:09.273Z,0
2016-11-11T08:12:19.684Z,0
2016-11-11T08:13:29.999Z,0
2016-11-11T08:14:40.318Z,0
2016-11-11T08:15:50.676Z,0
2016-11-11T08:17:01.490Z,0
2016-11-11T08:18:11.843Z,0
2016-11-11T08:19:22.169Z,0
2016-11-11T08:20:33.548Z,0
2016-11-11T08:21:43.883Z,0
2016-11-11T08:22:54.314Z,0
2016-11-11T08:24:05.510Z,0
2016-11-11T08:25:30.496Z,0
2016-11-11T08:26:41.033Z,0
2016-11-11T08:27:51.473Z,0
2016-11-11T08:29:01.913Z,0
2016-11-11T08:30:12.379Z,0
2016-11-11T08:31:22.815Z,0
2016-11-11T08:32:33.457Z,0
2016-11-11T08:33:43.893Z,0
2016-11-11T08:34:54.333Z,0
2016-11-11T08:36:04.774Z,0
2016-11-11T08:37:15.210Z,0
2016-11-11T08:38:25.760Z,0
2016-11-11T08:39:36.202Z,0
2016-11-11T08:40:46.676Z,5
2016-11-11T08:41:57.114Z,5
2016-11-11T08:43:07.551Z,5
2016-11-11T08:44:18.198Z,5
2016-11-11T08:45:43.685Z,5
2016-11-11T08:46:54.123Z,5
2016-11-11T08:48:04.561Z,5
2016-11-11T08:49:15.690Z,5
2016-11-11T08:50:26.128Z,5
2016-11-11T08:51:36.573Z,5
2016-11-11T08:52:47.013Z,5
2016-11-11T08:54:11.999Z,5
2016-11-11T08:55:22.439Z,5
2016-11-11T08:56:32.908Z,5
2016-11-11T08:57:43.344Z,5
2016-11-11T08:58:53.786Z,5
2016-11-11T09:00:04.257Z,5
2016-11-11T09:01:14.696Z,5
2016-11-11T09:02:25.130Z,5
2016-11-11T09:03:35.563Z,5
2016-11-11T09:04:46.145Z,5
2016-11-11T09:05:56.911Z,5
2016-11-11T09:07:07.426Z,5
2016-11-11T09:08:17.932Z,5
2016-11-11T09:09:28.374Z,5
2016-11-11T09:10:53.853Z,10
2016-11-11T09:12:04.305Z,10
2016-11-11T09:13:14.743Z,10
2016-11-11T09:14:25.185Z,10
2016-11-11T09:15:36.399Z,10
2016-11-11T09:16:47.035Z,10
2016-11-11T09:18:12.015Z,10
2016-11-11T09:19:22.450Z,10
2016-11-11T09:20:32.882Z,10
2016-11-11T09:21:43.324Z,10
2016-11-11T09:22:53.796Z,10
2016-11-11T09:24:04.721Z,10
2016-11-11T09:25:15.170Z,10
2016-11-11T09:26:25.603Z,10
2016-11-11T09:27:36.136Z,15
2016-11-11T09:28:46.605Z,15
2016-11-11T09:29:57.428Z,15
2016-11-11T09:31:07.751Z,15
2016-11-11T09:32:18.084Z,15
2016-11-11T09:33:28.548Z,15
2016-11-11T09:34:39.349Z,20
2016-11-11T09:35:49.671Z,15
2016-11-11T09:36:59.996Z,15
2016-11-11T09:38:10.321Z,15
2016-11-11T09:39:20.773Z,15
2016-11-11T09:40:31.104Z,10
2016-11-11T09:41:41.430Z,10
2016-11-11T09:42:51.848Z,10
2016-11-11T09:44:02.262Z,15
2016-11-11T09:45:12.675Z,15
2016-11-11T09:46:23.132Z,15
2016-11-11T09:47:33.544Z,15
2016-11-11T09:48:58.503Z,15
2016-11-11T09:51:33.882Z,15
2016-11-11T09:52:44.293Z,15
2016-11-11T09:53:54.709Z,15
2016-11-11T09:55:05.224Z,10
2016-11-11T09:56:15.645Z,10
2016-11-11T09:57:26.065Z,15
2016-11-11T09:58:36.476Z,15
2016-11-11T09:59:46.895Z,10
2016-11-11T10:00:57.311Z,15
2016-11-11T10:02:22.275Z,15
2016-11-11T10:03:32.780Z,15
2016-11-11T10:04:43.311Z,15
2016-11-11T10:05:53.943Z,15
2016-11-11T10:07:04.504Z,15
2016-11-11T10:08:15.035Z,15
2016-11-11T10:09:25.566Z,15
2016-11-11T10:10:36.137Z,15
2016-11-11T10:11:46.669Z,15
2016-11-11T10:12:57.198Z,15
2016-11-11T10:14:07.733Z,15
2016-11-11T10:15:18.266Z,15
2016-11-11T10:16:28.802Z,15
2016-11-11T10:17:39.534Z,15
2016-11-11T10:20:29.650Z,15
2016-11-11T10:21:40.180Z,15
2016-11-11T10:22:50.814Z,15
2016-11-11T10:24:01.347Z,15
2016-11-11T10:25:11.880Z,15
2016-11-11T10:26:22.410Z,15
2016-11-11T10:27:32.950Z,15
2016-11-11T10:28:58.212Z,15
2016-11-11T10:30:08.748Z,15
2016-11-11T10:31:19.287Z,15
2016-11-11T10:32:44.344Z,15
2016-11-11T10:33:55.072Z,15
2016-11-11T10:35:05.620Z,15
2016-11-11T10:36:16.157Z,15
2016-11-11T10:37:26.695Z,15
2016-11-11T10:38:37.230Z,15
2016-11-11T10:39:47.974Z,15
2016-11-11T10:40:59.018Z,15
2016-11-11T10:42:09.587Z,15
2016-11-11T10:43:20.124Z,15
2016-11-11T10:44:30.662Z,15
2016-11-11T10:45:41.203Z,15
2016-11-11T10:46:51.732Z,15
2016-11-11T10:48:02.262Z,15
2016-11-11T10:49:12.800Z,15
2016-11-11T10:50:23.340Z,15
2016-11-11T10:51:33.971Z,15
2016-11-11T10:52:45.014Z,15
2016-11-11T10:53:55.545Z,15
2016-11-11T10:55:06.075Z,15
2016-11-11T10:56:16.612Z,15
2016-11-11T10:57:41.773Z,15
2016-11-11T10:58:52.307Z,20
2016-11-11T11:00:02.843Z,20
2016-11-11T11:02:52.964Z,15
2016-11-11T11:04:03.500Z,15
2016-11-11T11:05:14.057Z,15
2016-11-11T11:06:24.590Z,20
2016-11-11T11:07:35.223Z,20
2016-11-11T11:08:45.964Z,20
2016-11-11T11:09:56.393Z,20
2016-11-11T11:11:06.812Z,20
2016-11-11T11:12:17.222Z,20
2016-11-11T11:13:27.649Z,20
2016-11-11T11:14:38.071Z,20
2016-11-11T11:15:48.484Z,20
2016-11-11T11:16:58.908Z,20
2016-11-11T11:18:09.323Z,20
2016-11-11T11:19:20.258Z,20
2016-11-11T11:20:30.678Z,20
2016-11-11T11:21:41.090Z,20
2016-11-11T11:22:51.507Z,20
2016-11-11T11:24:02.424Z,20
2016-11-11T11:25:13.042Z,20
2016-11-11T11:26:23.458Z,20
2016-11-11T11:27:33.868Z,20
2016-11-11T11:28:58.836Z,20
2016-11-11T11:30:09.451Z,20
2016-11-11T11:31:19.865Z,20
2016-11-11T11:32:30.279Z,20
2016-11-11T11:33:40.698Z,20
2016-11-11T11:34:51.115Z,20
2016-11-11T11:36:02.617Z,20
2016-11-11T11:37:13.033Z,20
2016-11-11T11:38:23.461Z,20
2016-11-11T11:39:33.872Z,20
2016-11-11T11:40:44.291Z,20
2016-11-11T11:41:54.739Z,20
2016-11-11T11:43:05.157Z,25
2016-11-11T11:44:15.576Z,25
2016-11-11T11:45:25.990Z,25
2016-11-11T11:46:36.996Z,25
2016-11-11T11:47:47.410Z,25
2016-11-11T11:48:57.822Z,30
2016-11-11T11:50:08.234Z,30
2016-11-11T11:51:18.650Z,30
2016-11-11T11:52:29.059Z,30
2016-11-11T11:53:40.055Z,30
2016-11-11T11:54:50.467Z,30
2016-11-11T11:56:00.883Z,30
2016-11-11T11:57:11.297Z,30
2016-11-11T12:00:01.087Z,35
2016-11-11T12:01:11.414Z,35
2016-11-11T12:02:21.739Z,35
2016-11-11T12:03:46.638Z,40
2016-11-11T12:04:57.165Z,40
2016-11-11T12:06:07.490Z,40
2016-11-11T12:07:17.813Z,40
2016-11-11T12:08:28.152Z,40
2016-11-11T12:09:38.472Z,40
2016-11-11T12:10:48.795Z,45
2016-11-11T12:11:59.120Z,45
2016-11-11T12:13:09.443Z,45
2016-11-11T12:14:19.767Z,50
2016-11-11T12:15:30.089Z,50
2016-11-11T12:18:05.509Z,55
2016-11-11T12:19:15.835Z,55
2016-11-11T12:20:26.158Z,55
2016-11-11T12:21:36.581Z,60
2016-11-11T12:22:46.946Z,60
2016-11-11T12:23:57.275Z,60
2016-11-11T12:25:07.604Z,60
2016-11-11T12:26:17.931Z,60
2016-11-11T12:27:43.025Z,65
2016-11-11T12:28:53.353Z,65
2016-11-11T12:30:03.711Z,65
2016-11-11T12:31:28.609Z,65
2016-11-11T12:32:53.505Z,60
2016-11-11T12:34:03.842Z,65
2016-11-11T12:35:14.174Z,70
2016-11-11T12:36:24.499Z,70
2016-11-11T12:37:34.824Z,70
2016-11-11T12:38:45.151Z,70
2016-11-11T12:39:55.478Z,70
2016-11-11T12:41:05.808Z,75
2016-11-11T12:42:30.757Z,70
2016-11-11T12:43:41.171Z,70
2016-11-11T12:44:51.588Z,75
2016-11-11T12:46:02.013Z,75
2016-11-11T12:47:12.428Z,75
2016-11-11T12:48:22.848Z,75
2016-11-11T12:49:33.270Z,75
2016-11-11T12:50:43.688Z,75
2016-11-11T12:51:54.115Z,75
2016-11-11T12:54:29.497Z,75
2016-11-11T12:55:39.916Z,75
2016-11-11T12:56:50.818Z,75
2016-11-11T12:58:01.233Z,75
2016-11-11T12:59:11.651Z,75
2016-11-11T13:00:22.166Z,75
2016-11-11T13:01:32.578Z,75
2016-11-11T13:02:42.996Z,75
2016-11-11T13:03:53.413Z,75
2016-11-11T13:05:03.829Z,75
2016-11-11T13:06:14.450Z,75
2016-11-11T13:07:24.871Z,80
2016-11-11T13:09:04.406Z,75
2016-11-11T13:10:14.839Z,75
2016-11-11T13:11:25.265Z,75
2016-11-11T13:12:50.236Z,70
2016-11-11T13:14:00.652Z,75
2016-11-11T13:15:11.072Z,65
2016-11-11T13:16:21.493Z,75
2016-11-11T13:17:31.943Z,80
2016-11-11T13:18:42.378Z,75
2016-11-11T13:19:52.794Z,80
2016-11-11T13:21:03.213Z,80
2016-11-11T13:22:28.184Z,80
2016-11-11T13:23:38.603Z,80
2016-11-11T13:24:49.027Z,85
2016-11-11T13:25:59.561Z,85
2016-11-11T13:27:10.303Z,50
2016-11-11T13:28:20.845Z,85
2016-11-11T13:30:56.448Z,85
2016-11-11T13:32:06.992Z,65
2016-11-11T13:33:18.027Z,80
2016-11-11T13:34:28.565Z,80
2016-11-11T13:35:39.105Z,85
2016-11-11T13:36:49.641Z,85
2016-11-11T13:38:00.184Z,90
2016-11-11T13:39:25.257Z,85
2016-11-11T13:40:35.969Z,85
2016-11-11T13:41:46.508Z,55
2016-11-11T13:43:11.576Z,85
2016-11-11T13:44:22.112Z,85
2016-11-11T13:45:33.152Z,30
2016-11-11T13:46:43.690Z,85
2016-11-11T13:47:54.232Z,30
2016-11-11T13:49:04.873Z,85
2016-11-11T13:50:30.026Z,35
2016-11-11T13:51:40.566Z,95
2016-11-11T13:52:51.110Z,40
2016-11-11T13:54:01.648Z,40
2016-11-11T13:55:27.215Z,100
2016-11-11T13:56:37.773Z,80
2016-11-11T13:57:48.807Z,90
2016-11-11T13:59:28.587Z,95
2016-11-11T14:00:41.133Z,55
2016-11-11T14:02:06.712Z,30
2016-11-11T14:03:18.764Z,30
2016-11-11T14:04:29.435Z,40
2016-11-11T14:05:40.469Z,35
2016-11-11T14:06:51.021Z,80
2016-11-11T14:08:01.565Z,30
2016-11-11T14:09:26.627Z,25
2016-11-11T14:10:37.664Z,30
2016-11-11T14:11:48.208Z,45
2016-11-11T14:13:13.269Z,45
2016-11-11T14:14:24.044Z,100
2016-11-11T14:15:35.417Z,100
2016-11-11T14:16:45.957Z,95
2016-11-11T14:17:56.492Z,95
2016-11-11T14:19:07.524Z,95
2016-11-11T14:20:18.058Z,60
2016-11-11T14:21:28.599Z,100
2016-11-11T14:22:39.145Z,85
2016-11-11T14:24:04.212Z,85
2016-11-11T14:25:14.951Z,30
2016-11-11T14:26:25.488Z,30
2016-11-11T14:27:36.052Z,30
2016-11-11T14:28:46.589Z,35
2016-11-11T14:29:57.124Z,40
2016-11-11T14:31:07.659Z,95
2016-11-11T14:32:18.202Z,90
2016-11-11T14:33:28.803Z,80
2016-11-11T14:34:39.341Z,30
2016-11-11T14:35:50.203Z,25
2016-11-11T14:37:00.943Z,25
2016-11-11T14:38:11.480Z,25
2016-11-11T14:39:22.017Z,90
2016-11-11T14:40:32.554Z,90
2016-11-11T14:41:43.093Z,85
2016-11-11T14:42:54.421Z,40
2016-11-11T14:44:04.959Z,25
2016-11-11T14:45:30.043Z,30
2016-11-11T14:46:40.611Z,30
2016-11-11T14:47:51.148Z,30
2016-11-11T14:49:01.757Z,30
2016-11-11T14:50:12.294Z,90
2016-11-11T14:51:22.838Z,90
2016-11-11T14:52:34.186Z,85
2016-11-11T14:53:44.723Z,80
2016-11-11T14:54:55.259Z,80
2016-11-11T14:56:05.796Z,80
2016-11-11T14:57:16.339Z,85
2016-11-11T14:58:26.880Z,80
2016-11-11T14:59:37.422Z,80
2016-11-11T15:00:47.956Z,80
2016-11-11T15:01:58.492Z,75
2016-11-11T15:03:09.031Z,75
2016-11-11T15:04:19.573Z,80
2016-11-11T15:05:30.121Z,80
2016-11-11T15:06:40.659Z,75
2016-11-11T15:07:51.194Z,80
2016-11-11T15:09:01.733Z,80
2016-11-11T15:10:12.280Z,75
2016-11-11T15:11:22.824Z,75
2016-11-11T15:12:33.372Z,75
2016-11-11T15:13:43.910Z,75
2016-11-11T15:15:09.483Z,75
2016-11-11T15:16:20.026Z,65
2016-11-11T15:17:30.565Z,75
2016-11-11T15:18:41.108Z,70
2016-11-11T15:19:51.647Z,70
2016-11-11T15:21:02.184Z,70
2016-11-11T15:22:12.822Z,75
2016-11-11T15:23:37.887Z,75
2016-11-11T15:24:48.437Z,70
2016-11-11T15:25:58.973Z,65
2016-11-11T15:27:09.650Z,30
2016-11-11T15:28:20.202Z,60
2016-11-11T15:29:30.754Z,25
2016-11-11T15:30:41.297Z,25
2016-11-11T15:31:51.834Z,25
2016-11-11T15:33:02.472Z,55
2016-11-11T15:34:13.011Z,55
2016-11-11T15:35:23.550Z,25
2016-11-11T15:36:34.084Z,40
2016-11-11T15:37:45.120Z,60
2016-11-11T15:38:55.760Z,55
2016-11-11T15:40:06.305Z,55
2016-11-11T15:41:17.348Z,55
2016-11-11T15:42:27.887Z,60
2016-11-11T15:43:38.423Z,60
2016-11-11T15:44:49.163Z,60
2016-11-11T15:46:00.196Z,40
2016-11-11T15:47:10.733Z,25
2016-11-11T15:48:21.274Z,55
2016-11-11T15:49:31.813Z,55
2016-11-11T15:50:56.975Z,50
2016-11-11T15:52:07.511Z,50
2016-11-11T15:54:43.127Z,50
2016-11-11T15:55:53.772Z,50
2016-11-11T15:57:04.316Z,50
2016-11-11T15:58:29.386Z,25
2016-11-11T15:59:39.958Z,25
2016-11-11T16:00:50.697Z,25
2016-11-11T16:02:01.263Z,25
2016-11-11T16:03:12.314Z,25
2016-11-11T16:04:22.851Z,20
2016-11-11T16:06:59.158Z,45
2016-11-11T16:08:10.197Z,40
2016-11-11T16:09:20.752Z,25
2016-11-11T16:10:31.810Z,45
2016-11-11T16:11:42.357Z,45
2016-11-11T16:12:53.498Z,40
2016-11-11T16:15:30.097Z,45
2016-11-11T16:16:41.163Z,45
2016-11-11T16:18:06.403Z,45
2016-11-11T16:19:17.371Z,40
2016-11-11T16:20:27.791Z,40
2016-11-11T16:21:52.770Z,40
2016-11-11T16:23:03.287Z,40
2016-11-11T16:24:14.191Z,25
2016-11-11T16:25:24.615Z,20
2016-11-11T16:26:35.032Z,25
2016-11-11T16:28:00.705Z,40
2016-11-11T16:29:11.614Z,40
2016-11-11T16:30:22.142Z,40
2016-11-11T16:31:32.571Z,40
2016-11-11T16:32:42.984Z,40
2016-11-11T16:33:53.630Z,40
2016-11-11T16:35:04.052Z,25
2016-11-11T16:36:29.024Z,40
2016-11-11T16:37:39.443Z,40
2016-11-11T16:38:49.889Z,40
2016-11-11T16:40:00.308Z,40
2016-11-11T16:41:10.723Z,40
2016-11-11T16:42:21.135Z,40
2016-11-11T16:43:31.552Z,40
2016-11-11T16:44:42.002Z,40
2016-11-11T16:45:52.421Z,40
2016-11-11T16:47:02.838Z,40
2016-11-11T16:48:27.805Z,40
2016-11-11T16:49:38.224Z,45
2016-11-11T16:50:48.642Z,50
2016-11-11T16:51:59.053Z,40
2016-11-11T16:53:09.471Z,35
2016-11-11T16:54:19.887Z,55
2016-11-11T16:55:30.301Z,55
2016-11-11T16:56:40.746Z,55
2016-11-11T16:57:51.200Z,55
2016-11-11T16:59:01.628Z,55
2016-11-11T17:00:12.044Z,50
2016-11-11T17:01:23.150Z,50
2016-11-11T17:02:33.566Z,50
2016-11-11T17:05:08.960Z,50
2016-11-11T17:06:20.064Z,55
2016-11-11T17:07:30.479Z,55
2016-11-11T17:08:40.894Z,55
2016-11-11T17:09:51.314Z,55
2016-11-11T17:11:01.731Z,55
2016-11-11T17:12:26.798Z,55
2016-11-11T17:13:37.213Z,55
2016-11-11T17:14:47.633Z,50
2016-11-11T17:15:58.054Z,55
2016-11-11T17:17:08.470Z,50
2016-11-11T17:18:18.897Z,50
2016-11-11T17:19:29.311Z,50
2016-11-11T17:20:39.732Z,55
2016-11-11T17:21:50.152Z,30
2016-11-11T17:23:00.568Z,30
2016-11-11T17:24:25.538Z,30
2016-11-11T17:25:35.955Z,50
2016-11-11T17:26:46.375Z,50
2016-11-11T17:27:56.994Z,45
2016-11-11T17:29:07.419Z,45
2016-11-11T17:30:18.343Z,45
2016-11-11T17:31:28.764Z,40
2016-11-11T17:32:39.194Z,40
2016-11-11T17:34:04.957Z,45
2016-11-11T17:35:15.380Z,45
2016-11-11T17:36:26.296Z,45
2016-11-11T17:37:36.711Z,45
2016-11-11T17:38:47.128Z,45
2016-11-11T17:39:57.543Z,45
2016-11-11T17:41:07.958Z,45
2016-11-11T17:42:32.926Z,45
2016-11-11T17:43:43.343Z,50
2016-11-11T17:44:53.761Z,50
2016-11-11T17:46:04.181Z,50
2016-11-11T17:47:29.150Z,50
2016-11-11T17:48:39.563Z,50
2016-11-11T17:49:49.981Z,45
2016-11-11T17:51:00.395Z,45